Airfield :
LOGIN :

Register | Disclaimer

   EN    FR    IT 

 










Legend :    VFR   Marginal VFR   IFR   Intensive IFR   Very Intensive IFR
Visi :
Ceiling :
>= 8 km
>= 3000ft
5 to 8 km
1000 to 3000 ft
1500m to 5 km
500 to 1000 ft
800 to 1500m
200 to 500 ft
< 800m
< 200 ft
Symbols :   Thunderstorms  Fog  Heavy snow  Heavy precipitations  Wind > 20 kt
SIGMETs :     Misc.  Thunderstorms  Icing  Turbulence  Mountain Waves  Volcanic Ashes






- Airport Elevation : 1197 ft
- IATA code : SPM


ETAD - Spangdahlem Ab

CURRENT METAR :
  • 260955Z 26007KT 6000 BR SCT003 OVC005 M01/M01 A3044 RMK AO2A SLP321 T10091010 TSNO $

EXPIRED METARs :
  • 260931Z 25006KT 6000 BR BKN004 OVC006 M00/M00 A3044 RMK AO2A SLP321 TSNO $
  • 260900Z 25005KT 6000 BR OVC006 M01/M01 A3042 RMK AO2A SLP315 T10091010 TSNO $
  • 260836Z 28004KT 6000 BR OVC006 M01/M01 A3043 RMK AO2A SLP318 TSNO $
  • 260754Z 26004KT 6000 BR OVC003 M01/M01 A3042 RMK AO2A SLP315 T10111012 TSNO $

TAF AMD TAF ETAD
Valid from the 26 at 09:00 until the 27 at 11:00 UTC


260930Z 2609/2711 VRB03KT 8000 BR OVC006 610061 QNH3041INS
TEMPO 2609/2612 BKN004
BECMG 2612/2613 28006KT 9999 NSW OVC010 610101 QNH3045INS
BECMG 2618/2619 VRB05KT 6000 BR OVC003 600031 QNH3035INS
BECMG 2705/2706 24010KT 8000 BR OVC009 620092 QNH3033INS TX01/2613Z TN00/2609Z



MET'MAP, your aeronautical weather chart ! - Copyright ORBIFLY December 2007 - Disclaimer

ORBIFLY MET'MAP TEAM :

Programming & Development : Alexandra Zaïnal
Original concept : Baudouin d'Aumeries
Technical & hardware support : Manuel Goepfert
Assistance : Marc-Olivier Méhu

Contact : metmap@orbifly.com




SOURCES & CREDITS :

   NOAA